sensor_id;sensor_type;location;lat;lon;timestamp;P1;durP1;ratioP1;P2;durP2;ratioP2
1829;SDS011;914;48.118;11.600;2023-09-12T00:02:07;6.00;;;5.40;;
1829;SDS011;914;48.118;11.600;2023-09-12T00:04:34;6.43;;;5.65;;
1829;SDS011;914;48.118;11.600;2023-09-12T00:07:00;5.32;;;4.82;;
1829;SDS011;914;48.118;11.600;2023-09-12T00:09:25;6.32;;;5.50;;
1829;SDS011;914;48.118;11.600;2023-09-12T00:11:52;6.50;;;5.65;;
1829;SDS011;914;48.118;11.600;2023-09-12T00:14:20;6.60;;;5.90;;
1829;SDS011;914;48.118;11.600;2023-09-12T00:16:46;5.82;;;5.05;;
1829;SDS011;914;48.118;11.600;2023-09-12T00:19:14;5.68;;;5.13;;
1829;SDS011;914;48.118;11.600;2023-09-12T00:21:40;5.53;;;5.03;;
1829;SDS011;914;48.118;11.600;2023-09-12T00:24:06;5.55;;;4.93;;
1829;SDS011;914;48.118;11.600;2023-09-12T00:26:32;5.45;;;4.95;;
1829;SDS011;914;48.118;11.600;2023-09-12T00:28:58;6.10;;;5.50;;
1829;SDS011;914;48.118;11.600;2023-09-12T00:31:24;5.72;;;4.88;;
1829;SDS011;914;48.118;11.600;2023-09-12T00:33:49;5.88;;;5.28;;
1829;SDS011;914;48.118;11.600;2023-09-12T00:36:15;5.45;;;4.95;;
1829;SDS011;914;48.118;11.600;2023-09-12T00:38:41;5.70;;;5.20;;
1829;SDS011;914;48.118;11.600;2023-09-12T00:41:07;6.00;;;5.32;;
1829;SDS011;914;48.118;11.600;2023-09-12T00:43:33;7.95;;;5.13;;
1829;SDS011;914;48.118;11.600;2023-09-12T00:45:58;8.15;;;5.38;;
1829;SDS011;914;48.118;11.600;2023-09-12T00:48:24;5.72;;;5.15;;
1829;SDS011;914;48.118;11.600;2023-09-12T00:50:50;6.03;;;5.43;;
1829;SDS011;914;48.118;11.600;2023-09-12T00:53:18;5.82;;;5.28;;
1829;SDS011;914;48.118;11.600;2023-09-12T00:55:45;5.80;;;4.88;;
1829;SDS011;914;48.118;11.600;2023-09-12T00:58:15;6.10;;;5.50;;
1829;SDS011;914;48.118;11.600;2023-09-12T01:00:42;6.30;;;5.70;;
1829;SDS011;914;48.118;11.600;2023-09-12T01:03:07;5.63;;;5.13;;
1829;SDS011;914;48.118;11.600;2023-09-12T01:05:33;9.00;;;5.18;;
1829;SDS011;914;48.118;11.600;2023-09-12T01:07:59;14.80;;;11.35;;
1829;SDS011;914;48.118;11.600;2023-09-12T01:10:26;13.60;;;10.43;;
1829;SDS011;914;48.118;11.600;2023-09-12T01:12:52;13.10;;;9.88;;
1829;SDS011;914;48.118;11.600;2023-09-12T01:15:18;13.95;;;9.90;;
1829;SDS011;914;48.118;11.600;2023-09-12T01:17:45;10.05;;;7.10;;
1829;SDS011;914;48.118;11.600;2023-09-12T01:20:13;11.43;;;8.55;;
1829;SDS011;914;48.118;11.600;2023-09-12T01:28:12;8.25;;;5.18;;
1829;SDS011;914;48.118;11.600;2023-09-12T01:30:41;7.05;;;5.45;;
1829;SDS011;914;48.118;11.600;2023-09-12T01:33:09;5.50;;;4.85;;
1829;SDS011;914;48.118;11.600;2023-09-12T01:35:36;5.32;;;4.85;;
1829;SDS011;914;48.118;11.600;2023-09-12T01:38:02;6.70;;;5.05;;
1829;SDS011;914;48.118;11.600;2023-09-12T01:40:44;5.43;;;4.93;;
1829;SDS011;914;48.118;11.600;2023-09-12T01:43:13;5.63;;;5.13;;
1829;SDS011;914;48.118;11.600;2023-09-12T01:45:46;5.53;;;4.88;;
1829;SDS011;914;48.118;11.600;2023-09-12T01:48:19;5.05;;;4.55;;
1829;SDS011;914;48.118;11.600;2023-09-12T01:50:47;5.78;;;5.20;;
1829;SDS011;914;48.118;11.600;2023-09-12T01:53:14;5.32;;;4.82;;
1829;SDS011;914;48.118;11.600;2023-09-12T01:55:43;5.63;;;5.13;;
1829;SDS011;914;48.118;11.600;2023-09-12T01:58:13;5.22;;;4.72;;
1829;SDS011;914;48.118;11.600;2023-09-12T02:00:39;7.63;;;5.15;;
1829;SDS011;914;48.118;11.600;2023-09-12T02:03:08;6.50;;;5.05;;
1829;SDS011;914;48.118;11.600;2023-09-12T02:05:35;5.72;;;5.15;;
1829;SDS011;914;48.118;11.600;2023-09-12T02:08:02;7.57;;;5.13;;
1829;SDS011;914;48.118;11.600;2023-09-12T02:10:30;5.55;;;4.85;;
1829;SDS011;914;48.118;11.600;2023-09-12T02:12:56;6.05;;;5.45;;
1829;SDS011;914;48.118;11.600;2023-09-12T02:15:22;5.90;;;5.30;;
1829;SDS011;914;48.118;11.600;2023-09-12T02:17:48;5.40;;;4.90;;
1829;SDS011;914;48.118;11.600;2023-09-12T02:20:15;5.82;;;5.22;;
1829;SDS011;914;48.118;11.600;2023-09-12T02:22:41;5.13;;;4.60;;
1829;SDS011;914;48.118;11.600;2023-09-12T02:25:07;5.53;;;4.78;;
1829;SDS011;914;48.118;11.600;2023-09-12T02:27:33;7.03;;;5.30;;
1829;SDS011;914;48.118;11.600;2023-09-12T02:29:59;5.10;;;4.60;;
1829;SDS011;914;48.118;11.600;2023-09-12T02:32:25;6.05;;;5.00;;
1829;SDS011;914;48.118;11.600;2023-09-12T02:34:51;5.85;;;4.97;;
1829;SDS011;914;48.118;11.600;2023-09-12T02:37:18;5.32;;;4.80;;
1829;SDS011;914;48.118;11.600;2023-09-12T02:39:44;5.53;;;4.97;;
1829;SDS011;914;48.118;11.600;2023-09-12T02:42:10;5.78;;;5.18;;
1829;SDS011;914;48.118;11.600;2023-09-12T02:44:36;6.18;;;4.72;;
1829;SDS011;914;48.118;11.600;2023-09-12T02:47:03;7.10;;;5.53;;
1829;SDS011;914;48.118;11.600;2023-09-12T02:49:29;7.43;;;4.80;;
1829;SDS011;914;48.118;11.600;2023-09-12T02:51:54;5.40;;;4.90;;
1829;SDS011;914;48.118;11.600;2023-09-12T02:54:21;5.35;;;4.85;;
1829;SDS011;914;48.118;11.600;2023-09-12T02:56:47;5.95;;;5.28;;
1829;SDS011;914;48.118;11.600;2023-09-12T02:59:13;6.03;;;4.90;;
1829;SDS011;914;48.118;11.600;2023-09-12T03:01:39;5.57;;;4.45;;
1829;SDS011;914;48.118;11.600;2023-09-12T03:04:05;6.60;;;5.15;;
1829;SDS011;914;48.118;11.600;2023-09-12T03:06:30;7.55;;;5.82;;
1829;SDS011;914;48.118;11.600;2023-09-12T03:08:56;5.57;;;5.07;;
1829;SDS011;914;48.118;11.600;2023-09-12T03:11:26;6.22;;;5.63;;
1829;SDS011;914;48.118;11.600;2023-09-12T03:13:53;5.70;;;5.10;;
1829;SDS011;914;48.118;11.600;2023-09-12T03:16:18;9.38;;;5.63;;
1829;SDS011;914;48.118;11.600;2023-09-12T03:18:44;7.20;;;5.38;;
1829;SDS011;914;48.118;11.600;2023-09-12T03:21:10;5.65;;;5.15;;
1829;SDS011;914;48.118;11.600;2023-09-12T03:23:35;7.55;;;5.40;;
1829;SDS011;914;48.118;11.600;2023-09-12T03:26:05;5.70;;;5.07;;
1829;SDS011;914;48.118;11.600;2023-09-12T03:28:31;5.97;;;5.38;;
1829;SDS011;914;48.118;11.600;2023-09-12T03:31:05;5.13;;;4.68;;
1829;SDS011;914;48.118;11.600;2023-09-12T03:33:39;5.35;;;4.85;;
1829;SDS011;914;48.118;11.600;2023-09-12T03:36:05;5.80;;;5.20;;
1829;SDS011;914;48.118;11.600;2023-09-12T03:38:32;5.63;;;5.03;;
1829;SDS011;914;48.118;11.600;2023-09-12T03:40:58;5.90;;;5.40;;
1829;SDS011;914;48.118;11.600;2023-09-12T03:43:24;5.40;;;4.90;;
1829;SDS011;914;48.118;11.600;2023-09-12T03:45:50;5.47;;;4.97;;
1829;SDS011;914;48.118;11.600;2023-09-12T03:48:16;5.93;;;5.20;;
1829;SDS011;914;48.118;11.600;2023-09-12T03:50:42;5.97;;;5.07;;
1829;SDS011;914;48.118;11.600;2023-09-12T03:53:09;6.38;;;5.32;;
1829;SDS011;914;48.118;11.600;2023-09-12T03:55:35;6.82;;;4.90;;
1829;SDS011;914;48.118;11.600;2023-09-12T03:58:01;5.80;;;5.30;;
1829;SDS011;914;48.118;11.600;2023-09-12T04:00:27;8.15;;;5.30;;
1829;SDS011;914;48.118;11.600;2023-09-12T04:02:53;10.20;;;5.60;;
1829;SDS011;914;48.118;11.600;2023-09-12T04:05:19;6.25;;;5.60;;
1829;SDS011;914;48.118;11.600;2023-09-12T04:07:44;5.85;;;4.95;;
1829;SDS011;914;48.118;11.600;2023-09-12T04:10:10;6.18;;;5.35;;
1829;SDS011;914;48.118;11.600;2023-09-12T04:12:36;7.10;;;5.28;;
1829;SDS011;914;48.118;11.600;2023-09-12T04:15:02;7.90;;;5.90;;
1829;SDS011;914;48.118;11.600;2023-09-12T04:17:27;6.22;;;5.63;;
1829;SDS011;914;48.118;11.600;2023-09-12T04:19:53;5.90;;;5.30;;
1829;SDS011;914;48.118;11.600;2023-09-12T04:22:19;6.20;;;5.60;;
1829;SDS011;914;48.118;11.600;2023-09-12T04:24:44;8.05;;;4.97;;
1829;SDS011;914;48.118;11.600;2023-09-12T04:27:10;5.35;;;4.85;;
1829;SDS011;914;48.118;11.600;2023-09-12T04:29:36;6.38;;;5.78;;
1829;SDS011;914;48.118;11.600;2023-09-12T04:32:02;5.68;;;5.00;;
1829;SDS011;914;48.118;11.600;2023-09-12T04:34:28;7.38;;;6.03;;
1829;SDS011;914;48.118;11.600;2023-09-12T04:36:54;5.70;;;4.63;;
1829;SDS011;914;48.118;11.600;2023-09-12T04:39:20;7.10;;;6.05;;
1829;SDS011;914;48.118;11.600;2023-09-12T04:41:46;10.40;;;8.13;;
1829;SDS011;914;48.118;11.600;2023-09-12T04:44:12;7.18;;;6.10;;
1829;SDS011;914;48.118;11.600;2023-09-12T04:46:38;6.63;;;5.90;;
1829;SDS011;914;48.118;11.600;2023-09-12T04:49:03;6.82;;;6.13;;
1829;SDS011;914;48.118;11.600;2023-09-12T04:51:29;5.85;;;5.25;;
1829;SDS011;914;48.118;11.600;2023-09-12T04:53:55;5.45;;;4.95;;
1829;SDS011;914;48.118;11.600;2023-09-12T04:56:20;6.85;;;6.00;;
1829;SDS011;914;48.118;11.600;2023-09-12T04:58:49;6.57;;;5.70;;
1829;SDS011;914;48.118;11.600;2023-09-12T05:01:15;7.50;;;6.35;;
1829;SDS011;914;48.118;11.600;2023-09-12T05:03:42;6.68;;;5.65;;
1829;SDS011;914;48.118;11.600;2023-09-12T05:06:09;6.75;;;5.80;;
1829;SDS011;914;48.118;11.600;2023-09-12T05:08:38;5.63;;;5.13;;
1829;SDS011;914;48.118;11.600;2023-09-12T05:11:04;8.27;;;5.68;;
1829;SDS011;914;48.118;11.600;2023-09-12T05:13:30;5.82;;;5.30;;
1829;SDS011;914;48.118;11.600;2023-09-12T05:15:56;6.30;;;5.47;;
1829;SDS011;914;48.118;11.600;2023-09-12T05:18:22;5.22;;;4.75;;
1829;SDS011;914;48.118;11.600;2023-09-12T05:20:49;5.20;;;4.45;;
1829;SDS011;914;48.118;11.600;2023-09-12T05:23:15;6.35;;;5.75;;
1829;SDS011;914;48.118;11.600;2023-09-12T05:25:41;8.90;;;5.47;;
1829;SDS011;914;48.118;11.600;2023-09-12T05:28:07;6.53;;;5.70;;
1829;SDS011;914;48.118;11.600;2023-09-12T05:30:33;7.00;;;5.87;;
1829;SDS011;914;48.118;11.600;2023-09-12T05:32:59;6.28;;;5.68;;
1829;SDS011;914;48.118;11.600;2023-09-12T05:35:25;6.43;;;5.77;;
1829;SDS011;914;48.118;11.600;2023-09-12T05:37:51;8.15;;;5.32;;
1829;SDS011;914;48.118;11.600;2023-09-12T05:40:19;6.28;;;5.65;;
1829;SDS011;914;48.118;11.600;2023-09-12T05:42:48;6.37;;;5.70;;
1829;SDS011;914;48.118;11.600;2023-09-12T05:45:14;5.67;;;5.13;;
1829;SDS011;914;48.118;11.600;2023-09-12T05:47:58;6.78;;;6.05;;
1829;SDS011;914;48.118;11.600;2023-09-12T05:51:00;6.57;;;5.50;;
1829;SDS011;914;48.118;11.600;2023-09-12T05:53:51;7.18;;;5.93;;
1829;SDS011;914;48.118;11.600;2023-09-12T05:56:19;11.70;;;9.02;;
1829;SDS011;914;48.118;11.600;2023-09-12T05:58:46;7.60;;;6.13;;
1829;SDS011;914;48.118;11.600;2023-09-12T06:01:12;7.75;;;5.30;;
1829;SDS011;914;48.118;11.600;2023-09-12T06:03:37;6.00;;;5.35;;
1829;SDS011;914;48.118;11.600;2023-09-12T06:06:04;10.32;;;6.63;;
1829;SDS011;914;48.118;11.600;2023-09-12T06:08:30;5.97;;;5.20;;
1829;SDS011;914;48.118;11.600;2023-09-12T06:10:56;8.07;;;6.17;;
1829;SDS011;914;48.118;11.600;2023-09-12T06:13:21;6.68;;;5.38;;
1829;SDS011;914;48.118;11.600;2023-09-12T06:15:47;6.55;;;5.65;;
1829;SDS011;914;48.118;11.600;2023-09-12T06:18:12;7.30;;;5.45;;
1829;SDS011;914;48.118;11.600;2023-09-12T06:20:38;5.57;;;4.88;;
1829;SDS011;914;48.118;11.600;2023-09-12T06:23:04;7.38;;;4.72;;
1829;SDS011;914;48.118;11.600;2023-09-12T06:25:30;6.50;;;4.97;;
1829;SDS011;914;48.118;11.600;2023-09-12T06:27:56;8.48;;;5.78;;
1829;SDS011;914;48.118;11.600;2023-09-12T06:30:21;7.55;;;5.32;;
1829;SDS011;914;48.118;11.600;2023-09-12T06:32:47;5.53;;;5.03;;
1829;SDS011;914;48.118;11.600;2023-09-12T06:35:12;7.07;;;5.40;;
1829;SDS011;914;48.118;11.600;2023-09-12T06:37:38;5.40;;;4.90;;
1829;SDS011;914;48.118;11.600;2023-09-12T06:40:05;9.90;;;4.75;;
1829;SDS011;914;48.118;11.600;2023-09-12T06:42:31;6.30;;;4.97;;
1829;SDS011;914;48.118;11.600;2023-09-12T06:44:57;5.05;;;4.45;;
1829;SDS011;914;48.118;11.600;2023-09-12T06:47:23;5.50;;;4.80;;
1829;SDS011;914;48.118;11.600;2023-09-12T06:49:48;7.13;;;5.65;;
1829;SDS011;914;48.118;11.600;2023-09-12T06:52:14;9.02;;;7.32;;
1829;SDS011;914;48.118;11.600;2023-09-12T06:54:39;6.65;;;5.97;;
1829;SDS011;914;48.118;11.600;2023-09-12T06:57:05;6.10;;;5.50;;
1829;SDS011;914;48.118;11.600;2023-09-12T06:59:31;15.00;;;10.00;;
1829;SDS011;914;48.118;11.600;2023-09-12T07:01:57;6.50;;;5.43;;
1829;SDS011;914;48.118;11.600;2023-09-12T07:04:22;5.35;;;4.85;;
1829;SDS011;914;48.118;11.600;2023-09-12T07:06:48;7.55;;;4.70;;
1829;SDS011;914;48.118;11.600;2023-09-12T07:09:14;5.13;;;4.63;;
1829;SDS011;914;48.118;11.600;2023-09-12T07:11:42;6.22;;;4.63;;
1829;SDS011;914;48.118;11.600;2023-09-12T07:14:11;4.95;;;4.53;;
1829;SDS011;914;48.118;11.600;2023-09-12T07:16:37;8.40;;;4.97;;
1829;SDS011;914;48.118;11.600;2023-09-12T07:19:02;4.97;;;4.47;;
1829;SDS011;914;48.118;11.600;2023-09-12T07:21:28;7.95;;;4.93;;
1829;SDS011;914;48.118;11.600;2023-09-12T07:23:54;5.22;;;4.72;;
1829;SDS011;914;48.118;11.600;2023-09-12T07:26:20;5.43;;;4.90;;
1829;SDS011;914;48.118;11.600;2023-09-12T07:28:46;4.55;;;4.15;;
1829;SDS011;914;48.118;11.600;2023-09-12T07:31:11;5.05;;;4.50;;
1829;SDS011;914;48.118;11.600;2023-09-12T07:33:37;10.50;;;4.70;;
1829;SDS011;914;48.118;11.600;2023-09-12T07:36:03;4.05;;;3.70;;
1829;SDS011;914;48.118;11.600;2023-09-12T07:38:28;4.93;;;4.43;;
1829;SDS011;914;48.118;11.600;2023-09-12T07:40:57;5.00;;;4.50;;
1829;SDS011;914;48.118;11.600;2023-09-12T07:43:25;4.18;;;3.78;;
1829;SDS011;914;48.118;11.600;2023-09-12T07:45:54;4.70;;;4.28;;
1829;SDS011;914;48.118;11.600;2023-09-12T07:48:21;4.70;;;4.30;;
1829;SDS011;914;48.118;11.600;2023-09-12T07:50:46;4.63;;;4.22;;
1829;SDS011;914;48.118;11.600;2023-09-12T07:53:12;4.78;;;4.35;;
1829;SDS011;914;48.118;11.600;2023-09-12T07:55:37;4.45;;;4.05;;
1829;SDS011;914;48.118;11.600;2023-09-12T07:58:11;6.07;;;4.20;;
1829;SDS011;914;48.118;11.600;2023-09-12T08:00:40;4.70;;;4.30;;
1829;SDS011;914;48.118;11.600;2023-09-12T08:03:06;5.68;;;4.20;;
1829;SDS011;914;48.118;11.600;2023-09-12T08:05:32;4.65;;;4.25;;
1829;SDS011;914;48.118;11.600;2023-09-12T08:07:58;4.60;;;4.20;;
1829;SDS011;914;48.118;11.600;2023-09-12T08:10:23;4.65;;;4.20;;
1829;SDS011;914;48.118;11.600;2023-09-12T08:12:49;4.78;;;4.38;;
1829;SDS011;914;48.118;11.600;2023-09-12T08:15:14;4.93;;;4.50;;
1829;SDS011;914;48.118;11.600;2023-09-12T08:17:40;4.82;;;4.30;;
1829;SDS011;914;48.118;11.600;2023-09-12T08:20:07;4.60;;;4.20;;
1829;SDS011;914;48.118;11.600;2023-09-12T08:22:35;5.32;;;4.82;;
1829;SDS011;914;48.118;11.600;2023-09-12T08:25:01;4.47;;;4.07;;
1829;SDS011;914;48.118;11.600;2023-09-12T08:27:27;5.25;;;4.75;;
1829;SDS011;914;48.118;11.600;2023-09-12T08:29:53;5.07;;;4.38;;
1829;SDS011;914;48.118;11.600;2023-09-12T08:32:18;4.90;;;4.28;;
1829;SDS011;914;48.118;11.600;2023-09-12T08:34:45;5.35;;;4.85;;
1829;SDS011;914;48.118;11.600;2023-09-12T08:37:10;5.45;;;4.80;;
1829;SDS011;914;48.118;11.600;2023-09-12T08:39:40;4.68;;;4.18;;
1829;SDS011;914;48.118;11.600;2023-09-12T08:42:09;4.57;;;4.28;;
1829;SDS011;914;48.118;11.600;2023-09-12T08:44:40;5.03;;;4.53;;
1829;SDS011;914;48.118;11.600;2023-09-12T08:47:07;6.65;;;4.35;;
1829;SDS011;914;48.118;11.600;2023-09-12T08:49:34;5.18;;;4.35;;
1829;SDS011;914;48.118;11.600;2023-09-12T08:52:01;4.45;;;3.95;;
1829;SDS011;914;48.118;11.600;2023-09-12T08:54:27;4.97;;;4.20;;
1829;SDS011;914;48.118;11.600;2023-09-12T08:56:53;4.97;;;4.45;;
1829;SDS011;914;48.118;11.600;2023-09-12T08:59:19;4.47;;;4.07;;
1829;SDS011;914;48.118;11.600;2023-09-12T09:01:45;4.72;;;4.30;;
1829;SDS011;914;48.118;11.600;2023-09-12T09:04:12;4.32;;;3.92;;
1829;SDS011;914;48.118;11.600;2023-09-12T09:06:38;4.10;;;3.80;;
1829;SDS011;914;48.118;11.600;2023-09-12T09:09:07;4.47;;;4.07;;
1829;SDS011;914;48.118;11.600;2023-09-12T09:11:33;4.55;;;4.15;;
1829;SDS011;914;48.118;11.600;2023-09-12T09:14:00;4.60;;;4.05;;
1829;SDS011;914;48.118;11.600;2023-09-12T09:16:27;4.72;;;4.32;;
1829;SDS011;914;48.118;11.600;2023-09-12T09:18:58;5.20;;;4.38;;
1829;SDS011;914;48.118;11.600;2023-09-12T09:21:30;5.63;;;4.30;;
1829;SDS011;914;48.118;11.600;2023-09-12T09:24:10;4.90;;;4.40;;
1829;SDS011;914;48.118;11.600;2023-09-12T09:26:49;4.68;;;4.10;;
1829;SDS011;914;48.118;11.600;2023-09-12T09:29:18;5.38;;;4.13;;
1829;SDS011;914;48.118;11.600;2023-09-12T09:31:47;5.50;;;4.25;;
1829;SDS011;914;48.118;11.600;2023-09-12T09:34:20;4.18;;;3.85;;
1829;SDS011;914;48.118;11.600;2023-09-12T09:36:50;5.45;;;4.32;;
1829;SDS011;914;48.118;11.600;2023-09-12T09:39:18;4.43;;;4.03;;
1829;SDS011;914;48.118;11.600;2023-09-12T09:41:48;4.22;;;3.85;;
1829;SDS011;914;48.118;11.600;2023-09-12T09:44:14;4.93;;;4.43;;
1829;SDS011;914;48.118;11.600;2023-09-12T09:46:44;4.55;;;4.15;;
1829;SDS011;914;48.118;11.600;2023-09-12T09:49:11;4.38;;;3.97;;
1829;SDS011;914;48.118;11.600;2023-09-12T09:51:43;9.85;;;4.78;;
1829;SDS011;914;48.118;11.600;2023-09-12T09:54:09;4.35;;;3.95;;
1829;SDS011;914;48.118;11.600;2023-09-12T09:56:48;4.80;;;4.40;;
1829;SDS011;914;48.118;11.600;2023-09-12T09:59:16;5.00;;;4.22;;
1829;SDS011;914;48.118;11.600;2023-09-12T10:01:44;4.50;;;4.07;;
1829;SDS011;914;48.118;11.600;2023-09-12T10:04:10;5.22;;;4.50;;
1829;SDS011;914;48.118;11.600;2023-09-12T10:06:36;4.95;;;4.47;;
1829;SDS011;914;48.118;11.600;2023-09-12T10:09:10;4.63;;;4.20;;
1829;SDS011;914;48.118;11.600;2023-09-12T10:11:38;4.45;;;4.05;;
1829;SDS011;914;48.118;11.600;2023-09-12T10:14:05;4.28;;;3.95;;
1829;SDS011;914;48.118;11.600;2023-09-12T10:16:35;4.60;;;4.00;;
1829;SDS011;914;48.118;11.600;2023-09-12T10:19:09;4.10;;;3.70;;
1829;SDS011;914;48.118;11.600;2023-09-12T10:21:43;4.47;;;4.05;;
1829;SDS011;914;48.118;11.600;2023-09-12T10:24:11;5.00;;;4.50;;
1829;SDS011;914;48.118;11.600;2023-09-12T10:26:37;4.97;;;4.47;;
1829;SDS011;914;48.118;11.600;2023-09-12T10:29:07;5.78;;;4.22;;
1829;SDS011;914;48.118;11.600;2023-09-12T10:31:35;4.07;;;3.78;;
1829;SDS011;914;48.118;11.600;2023-09-12T10:34:00;4.78;;;3.90;;
1829;SDS011;914;48.118;11.600;2023-09-12T10:36:28;7.70;;;5.18;;
1829;SDS011;914;48.118;11.600;2023-09-12T10:38:54;5.00;;;4.60;;
1829;SDS011;914;48.118;11.600;2023-09-12T10:41:21;4.35;;;4.03;;
1829;SDS011;914;48.118;11.600;2023-09-12T10:43:49;4.03;;;3.72;;
1829;SDS011;914;48.118;11.600;2023-09-12T10:46:17;4.43;;;3.90;;
1829;SDS011;914;48.118;11.600;2023-09-12T10:48:43;4.78;;;4.38;;
1829;SDS011;914;48.118;11.600;2023-09-12T10:51:09;5.07;;;4.40;;
1829;SDS011;914;48.118;11.600;2023-09-12T10:53:37;4.75;;;4.35;;
1829;SDS011;914;48.118;11.600;2023-09-12T11:01:32;4.75;;;4.25;;
1829;SDS011;914;48.118;11.600;2023-09-12T11:04:03;4.85;;;4.18;;
1829;SDS011;914;48.118;11.600;2023-09-12T11:06:44;4.30;;;3.90;;
1829;SDS011;914;48.118;11.600;2023-09-12T11:11:39;4.57;;;3.70;;
1829;SDS011;914;48.118;11.600;2023-09-12T11:14:09;4.43;;;4.03;;
1829;SDS011;914;48.118;11.600;2023-09-12T11:16:35;4.40;;;4.05;;
1829;SDS011;914;48.118;11.600;2023-09-12T11:21:45;4.20;;;3.90;;
1829;SDS011;914;48.118;11.600;2023-09-12T11:24:12;3.85;;;3.55;;
1829;SDS011;914;48.118;11.600;2023-09-12T11:29:27;3.75;;;3.45;;
1829;SDS011;914;48.118;11.600;2023-09-12T11:31:58;4.65;;;4.25;;
1829;SDS011;914;48.118;11.600;2023-09-12T11:34:25;4.07;;;3.67;;
1829;SDS011;914;48.118;11.600;2023-09-12T11:36:55;5.30;;;3.75;;
1829;SDS011;914;48.118;11.600;2023-09-12T11:39:23;4.00;;;3.70;;
1829;SDS011;914;48.118;11.600;2023-09-12T11:41:50;5.88;;;3.90;;
1829;SDS011;914;48.118;11.600;2023-09-12T11:44:16;4.40;;;3.92;;
1829;SDS011;914;48.118;11.600;2023-09-12T11:46:45;4.50;;;4.10;;
1829;SDS011;914;48.118;11.600;2023-09-12T11:49:14;3.97;;;3.58;;
1829;SDS011;914;48.118;11.600;2023-09-12T11:51:47;4.15;;;3.75;;
1829;SDS011;914;48.118;11.600;2023-09-12T11:54:19;5.05;;;3.72;;
1829;SDS011;914;48.118;11.600;2023-09-12T11:56:49;3.65;;;3.35;;
1829;SDS011;914;48.118;11.600;2023-09-12T11:59:21;3.97;;;3.40;;
1829;SDS011;914;48.118;11.600;2023-09-12T12:01:47;3.67;;;3.38;;
1829;SDS011;914;48.118;11.600;2023-09-12T12:04:14;3.78;;;3.35;;
1829;SDS011;914;48.118;11.600;2023-09-12T12:06:40;3.50;;;3.10;;
1829;SDS011;914;48.118;11.600;2023-09-12T12:09:06;4.07;;;3.38;;
1829;SDS011;914;48.118;11.600;2023-09-12T12:11:32;3.75;;;3.45;;
1829;SDS011;914;48.118;11.600;2023-09-12T12:13:58;3.60;;;3.30;;
1829;SDS011;914;48.118;11.600;2023-09-12T12:16:35;4.43;;;3.72;;
1829;SDS011;914;48.118;11.600;2023-09-12T12:19:00;4.97;;;3.67;;
1829;SDS011;914;48.118;11.600;2023-09-12T12:21:26;3.38;;;3.08;;
1829;SDS011;914;48.118;11.600;2023-09-12T12:24:02;3.42;;;3.22;;
1829;SDS011;914;48.118;11.600;2023-09-12T12:26:28;3.45;;;3.25;;
1829;SDS011;914;48.118;11.600;2023-09-12T12:28:55;6.53;;;3.50;;
1829;SDS011;914;48.118;11.600;2023-09-12T12:31:21;4.00;;;3.70;;
1829;SDS011;914;48.118;11.600;2023-09-12T12:33:49;4.13;;;3.70;;
1829;SDS011;914;48.118;11.600;2023-09-12T12:36:17;5.82;;;3.38;;
1829;SDS011;914;48.118;11.600;2023-09-12T12:38:43;3.40;;;3.10;;
1829;SDS011;914;48.118;11.600;2023-09-12T12:41:16;3.50;;;3.20;;
1829;SDS011;914;48.118;11.600;2023-09-12T12:43:48;4.10;;;3.25;;
1829;SDS011;914;48.118;11.600;2023-09-12T12:46:16;3.67;;;3.38;;
1829;SDS011;914;48.118;11.600;2023-09-12T12:48:44;3.25;;;3.05;;
1829;SDS011;914;48.118;11.600;2023-09-12T12:51:14;3.95;;;3.65;;
1829;SDS011;914;48.118;11.600;2023-09-12T12:53:48;3.88;;;3.15;;
1829;SDS011;914;48.118;11.600;2023-09-12T12:56:17;4.32;;;3.53;;
1829;SDS011;914;48.118;11.600;2023-09-12T12:58:48;4.00;;;3.17;;
1829;SDS011;914;48.118;11.600;2023-09-12T13:01:16;3.17;;;2.97;;
1829;SDS011;914;48.118;11.600;2023-09-12T13:03:41;3.13;;;2.92;;
1829;SDS011;914;48.118;11.600;2023-09-12T13:06:07;3.50;;;3.20;;
1829;SDS011;914;48.118;11.600;2023-09-12T13:08:38;4.13;;;2.72;;
1829;SDS011;914;48.118;11.600;2023-09-12T13:11:08;3.15;;;2.95;;
1829;SDS011;914;48.118;11.600;2023-09-12T13:13:35;2.95;;;2.65;;
1829;SDS011;914;48.118;11.600;2023-09-12T13:16:02;4.35;;;3.50;;
1829;SDS011;914;48.118;11.600;2023-09-12T13:18:30;3.78;;;3.47;;
1829;SDS011;914;48.118;11.600;2023-09-12T13:20:57;3.60;;;3.28;;
1829;SDS011;914;48.118;11.600;2023-09-12T13:23:22;3.80;;;3.50;;
1829;SDS011;914;48.118;11.600;2023-09-12T13:25:50;3.75;;;3.45;;
1829;SDS011;914;48.118;11.600;2023-09-12T13:28:16;3.67;;;3.38;;
1829;SDS011;914;48.118;11.600;2023-09-12T13:30:42;3.90;;;3.60;;
1829;SDS011;914;48.118;11.600;2023-09-12T13:33:09;3.70;;;3.40;;
1829;SDS011;914;48.118;11.600;2023-09-12T13:35:36;3.50;;;3.30;;
1829;SDS011;914;48.118;11.600;2023-09-12T13:38:02;4.70;;;3.40;;
1829;SDS011;914;48.118;11.600;2023-09-12T13:40:34;5.47;;;3.13;;
1829;SDS011;914;48.118;11.600;2023-09-12T13:43:04;3.50;;;3.20;;
1829;SDS011;914;48.118;11.600;2023-09-12T13:45:30;3.13;;;2.83;;
1829;SDS011;914;48.118;11.600;2023-09-12T13:47:57;4.38;;;3.60;;
1829;SDS011;914;48.118;11.600;2023-09-12T13:50:23;3.67;;;3.38;;
1829;SDS011;914;48.118;11.600;2023-09-12T13:52:49;3.80;;;3.50;;
1829;SDS011;914;48.118;11.600;2023-09-12T13:55:15;3.78;;;3.47;;
1829;SDS011;914;48.118;11.600;2023-09-12T13:57:41;3.47;;;3.17;;
1829;SDS011;914;48.118;11.600;2023-09-12T14:00:07;4.00;;;3.65;;
1829;SDS011;914;48.118;11.600;2023-09-12T14:02:33;3.97;;;3.53;;
1829;SDS011;914;48.118;11.600;2023-09-12T14:04:59;3.45;;;3.25;;
1829;SDS011;914;48.118;11.600;2023-09-12T14:07:25;3.50;;;3.20;;
1829;SDS011;914;48.118;11.600;2023-09-12T14:09:51;3.70;;;3.30;;
1829;SDS011;914;48.118;11.600;2023-09-12T14:12:21;3.55;;;3.25;;
1829;SDS011;914;48.118;11.600;2023-09-12T14:14:47;3.85;;;3.47;;
1829;SDS011;914;48.118;11.600;2023-09-12T14:17:13;4.00;;;3.70;;
1829;SDS011;914;48.118;11.600;2023-09-12T14:19:39;4.53;;;3.47;;
1829;SDS011;914;48.118;11.600;2023-09-12T14:22:05;4.05;;;3.60;;
1829;SDS011;914;48.118;11.600;2023-09-12T14:24:30;3.92;;;3.53;;
1829;SDS011;914;48.118;11.600;2023-09-12T14:26:56;4.07;;;3.28;;
1829;SDS011;914;48.118;11.600;2023-09-12T14:29:22;4.55;;;4.10;;
1829;SDS011;914;48.118;11.600;2023-09-12T14:31:48;4.20;;;3.78;;
1829;SDS011;914;48.118;11.600;2023-09-12T14:34:15;3.92;;;3.63;;
1829;SDS011;914;48.118;11.600;2023-09-12T14:36:41;4.65;;;4.25;;
1829;SDS011;914;48.118;11.600;2023-09-12T14:39:07;6.40;;;4.03;;
1829;SDS011;914;48.118;11.600;2023-09-12T14:41:33;4.68;;;4.20;;
1829;SDS011;914;48.118;11.600;2023-09-12T14:43:58;4.32;;;3.92;;
1829;SDS011;914;48.118;11.600;2023-09-12T14:46:24;5.75;;;4.35;;
1829;SDS011;914;48.118;11.600;2023-09-12T14:48:50;4.68;;;4.18;;
1829;SDS011;914;48.118;11.600;2023-09-12T14:51:15;4.25;;;3.85;;
1829;SDS011;914;48.118;11.600;2023-09-12T14:53:41;5.10;;;3.85;;
1829;SDS011;914;48.118;11.600;2023-09-12T14:56:12;4.50;;;4.10;;
1829;SDS011;914;48.118;11.600;2023-09-12T14:58:38;4.45;;;4.05;;
1829;SDS011;914;48.118;11.600;2023-09-12T15:01:04;4.28;;;3.60;;
1829;SDS011;914;48.118;11.600;2023-09-12T15:03:30;4.32;;;3.92;;
1829;SDS011;914;48.118;11.600;2023-09-12T15:05:55;4.22;;;3.83;;
1829;SDS011;914;48.118;11.600;2023-09-12T15:08:21;5.60;;;3.80;;
1829;SDS011;914;48.118;11.600;2023-09-12T15:10:47;5.10;;;4.18;;
1829;SDS011;914;48.118;11.600;2023-09-12T15:13:13;4.65;;;4.18;;
1829;SDS011;914;48.118;11.600;2023-09-12T15:15:39;4.35;;;3.78;;
1829;SDS011;914;48.118;11.600;2023-09-12T15:18:05;6.60;;;4.18;;
1829;SDS011;914;48.118;11.600;2023-09-12T15:20:31;4.97;;;4.47;;
1829;SDS011;914;48.118;11.600;2023-09-12T15:22:57;5.57;;;3.90;;
1829;SDS011;914;48.118;11.600;2023-09-12T15:25:23;4.72;;;4.28;;
1829;SDS011;914;48.118;11.600;2023-09-12T15:27:48;5.03;;;4.18;;
1829;SDS011;914;48.118;11.600;2023-09-12T15:30:14;5.25;;;4.75;;
1829;SDS011;914;48.118;11.600;2023-09-12T15:32:40;3.70;;;3.40;;
1829;SDS011;914;48.118;11.600;2023-09-12T15:35:05;4.60;;;4.20;;